»·PEaware :: N3023K KBUR-KSNA

N3023K :: KBUR-KSNA

FLIGHT INFORMATION

Flight Status: Arrived
Operator: Privately registered:
United States
More flights under this callsign
Pilot: Christopher B. (19444)
Aircraft: Unknown
(P28U)
More flights by this aircraft type
Origin: KBUR Bob Hope-Burbank
United States
Destination: KSNA John Wayne-Orange Co
United States
More flights between these airports :: More routes between these airports
Route: +ELMOO9 ELMOO V186 BAYJY V363 POXKU V8 SLI
File this flight plan on PilotEdge
Remarks: TEC route BURP20
Altitude:
(Current/Filed)
5,000ft
Speed:
(Current/Filed)
135kts
Departed: 15-Mar-20 05:20 PM
Arrived: 15-Mar-20 05:47 PM
Distance/Time
Traveled:
40nm/0:27
Distance/Time
To Go:
Arrived

Flight Plot

Page will automatically refresh every two minutes.


Map Options




Map Legend


Flown Route
Filed Route
Departure Airport
Arrival Airport
Navaid (VOR, NDB)
Fix

Horizontal Profiles

Position Reports

Time Latitude Longitude Heading Altitude Ground
Speed
15-Mar-20 16:52 34.196154 -118.367522 0 780ft 0kts
15-Mar-20 16:53 34.196154 -118.367522 0 780ft 0kts
15-Mar-20 16:54 34.196154 -118.367522 0 780ft 0kts
15-Mar-20 16:55 34.196154 -118.367522 0 780ft 0kts
15-Mar-20 17:05 34.196154 -118.367522 0 780ft 0kts
15-Mar-20 17:06 34.196154 -118.367522 0 780ft 0kts
15-Mar-20 17:07 34.196154 -118.367522 0 780ft 0kts
15-Mar-20 17:08 34.196154 -118.367522 0 780ft 0kts
15-Mar-20 17:09 34.196154 -118.367522 0 780ft 0kts
15-Mar-20 17:10 34.196154 -118.367522 359 780ft 0kts
15-Mar-20 17:11 34.196154 -118.367522 359 780ft 0kts
15-Mar-20 17:12 34.196154 -118.367522 359 780ft 0kts
15-Mar-20 17:13 34.196319 -118.366820 49 780ft 5kts
15-Mar-20 17:14 34.196523 -118.366705 359 780ft 0kts
15-Mar-20 17:15 34.196523 -118.366705 359 780ft 0kts
15-Mar-20 17:16 34.196637 -118.366707 359 780ft 5kts
15-Mar-20 17:17 34.196932 -118.368633 282 780ft 6kts
15-Mar-20 17:18 34.197063 -118.368909 328 780ft 0kts
15-Mar-20 17:19 34.197245 -118.368986 349 780ft 9kts
15-Mar-20 17:20 34.197994 -118.352239 94 991ft 98kts
15-Mar-20 17:21 34.184881 -118.323886 136 1820ft 107kts
15-Mar-20 17:22 34.167470 -118.295390 118 2563ft 119kts
15-Mar-20 17:23 34.154584 -118.259895 122 3263ft 116kts
15-Mar-20 17:24 34.142636 -118.223878 118 3951ft 120kts
15-Mar-20 17:24 34.132846 -118.192272 118 4606ft 123kts
15-Mar-20 17:26 34.118979 -118.147324 118 5028ft 140kts
15-Mar-20 17:27 34.106678 -118.107334 118 4983ft 146kts
15-Mar-20 17:27 34.094049 -118.066110 119 4994ft 140kts
15-Mar-20 17:28 34.080799 -118.022996 119 4954ft 138kts
15-Mar-20 17:30 34.065396 -117.972815 119 4953ft 137kts
15-Mar-20 17:30 34.054585 -117.937569 119 5024ft 135kts
15-Mar-20 17:31 34.041246 -117.894257 119 5069ft 135kts
15-Mar-20 17:32 34.027977 -117.851279 120 5012ft 134kts
15-Mar-20 17:33 34.014704 -117.808421 119 4930ft 136kts
15-Mar-20 17:34 33.988090 -117.786021 181 4341ft 116kts
15-Mar-20 17:35 33.956464 -117.784289 185 4001ft 114kts
15-Mar-20 17:36 33.924596 -117.783566 184 4024ft 113kts
15-Mar-20 17:37 33.893507 -117.782718 183 3838ft 111kts
15-Mar-20 17:38 33.863577 -117.786498 192 3091ft 108kts
15-Mar-20 17:39 33.834258 -117.792445 193 3002ft 110kts
15-Mar-20 17:40 33.803847 -117.797688 192 2952ft 109kts
15-Mar-20 17:41 33.773470 -117.799198 179 2517ft 110kts
15-Mar-20 17:42 33.747979 -117.812700 223 2012ft 107kts
15-Mar-20 17:43 33.727152 -117.835553 216 1294ft 100kts
15-Mar-20 17:44 33.702731 -117.851541 209 736ft 99kts
15-Mar-20 17:45 33.681321 -117.865208 207 103ft 76kts
15-Mar-20 17:46 33.674259 -117.870977 257 59ft 5kts
15-Mar-20 17:47 33.672876 -117.872925 221 59ft 2kts
15-Mar-20 17:48 33.672827 -117.872964 202 59ft 0kts
15-Mar-20 17:49 33.672827 -117.872964 202 59ft 0kts
15-Mar-20 17:50 33.672827 -117.872964 202 59ft 0kts
15-Mar-20 17:51 33.672827 -117.872964 202 59ft 0kts
15-Mar-20 17:52 33.672827 -117.872964 202 59ft 0kts
15-Mar-20 17:53 33.672827 -117.872964 202 59ft 0kts
15-Mar-20 17:54 33.672827 -117.872964 202 59ft 0kts
15-Mar-20 17:55 33.672827 -117.872964 202 59ft 0kts
15-Mar-20 17:56 33.672827 -117.872964 202 59ft 0kts

Navigation Log

Ident Type
Flight plan parsing failed, navigation log unavailable